createdAt,value
2018-08-16T05:37:52.390Z,20.30
2018-08-16T05:40:21.258Z,20.30
2018-08-16T05:42:51.125Z,20.50
2018-08-16T05:45:20.024Z,20.60
2018-08-16T05:47:49.463Z,20.70
2018-08-16T05:50:18.349Z,20.80
2018-08-16T05:52:48.104Z,21.00
2018-08-16T05:55:17.929Z,21.10
2018-08-16T05:57:47.891Z,21.20
2018-08-16T06:00:17.537Z,21.40
2018-08-16T06:02:47.000Z,21.50
2018-08-16T06:05:16.728Z,21.70
2018-08-16T06:07:45.755Z,21.80
2018-08-16T06:10:15.057Z,22.00
2018-08-16T06:12:43.953Z,22.10
2018-08-16T06:15:13.569Z,22.30
2018-08-16T06:17:43.326Z,22.40
2018-08-16T06:20:12.928Z,22.60
2018-08-16T06:22:41.826Z,22.80
2018-08-16T06:25:12.819Z,22.90
2018-08-16T06:27:42.176Z,23.10
2018-08-16T06:30:13.317Z,23.20
2018-08-16T06:32:42.984Z,23.40
2018-08-16T06:35:11.974Z,23.50
2018-08-16T06:37:40.932Z,23.60
2018-08-16T06:40:14.115Z,23.70
2018-08-16T06:42:43.071Z,23.70
2018-08-16T06:45:11.941Z,23.80
2018-08-16T06:47:40.828Z,23.80
2018-08-16T06:50:09.809Z,23.90
2018-08-16T06:52:38.744Z,23.90
2018-08-16T06:55:08.276Z,23.90
2018-08-16T06:57:38.084Z,23.90
2018-08-16T07:00:09.102Z,23.90
2018-08-16T07:02:39.223Z,23.90
2018-08-16T07:05:08.780Z,23.90
2018-08-16T07:07:38.045Z,23.90
2018-08-16T07:10:09.340Z,23.90
2018-08-16T07:12:38.204Z,23.90
2018-08-16T07:15:09.704Z,23.90
2018-08-16T07:17:38.581Z,23.90
2018-08-16T07:20:08.128Z,23.90
2018-08-16T07:22:37.964Z,23.90
2018-08-16T07:25:07.664Z,23.90
2018-08-16T07:27:36.678Z,23.90
2018-08-16T07:30:07.688Z,24.00
2018-08-16T07:32:36.540Z,24.00
2018-08-16T07:35:05.788Z,24.00
2018-08-16T07:37:35.288Z,24.00
2018-08-16T07:40:05.522Z,24.10
2018-08-16T07:42:42.899Z,24.10
2018-08-16T07:45:13.119Z,24.20
2018-08-16T07:47:42.641Z,24.20
2018-08-16T07:50:11.811Z,24.30
2018-08-16T07:52:41.345Z,24.30
2018-08-16T07:55:11.125Z,24.40
2018-08-16T07:57:40.280Z,24.50
2018-08-16T08:00:16.806Z,24.60
2018-08-16T08:02:45.887Z,24.70
2018-08-16T08:05:14.728Z,24.80
2018-08-16T08:07:43.682Z,25.00
2018-08-16T08:10:12.635Z,25.10
2018-08-16T08:12:41.514Z,25.30
2018-08-16T08:15:12.456Z,25.50
2018-08-16T08:17:41.371Z,25.70
2018-08-16T08:20:13.314Z,25.90
2018-08-16T08:22:42.498Z,26.00
2018-08-16T08:25:12.142Z,26.30
2018-08-16T08:27:41.005Z,26.50
2018-08-16T08:30:15.389Z,26.70
2018-08-16T08:32:44.284Z,26.80
2018-08-16T08:35:13.383Z,27.00
2018-08-16T08:37:53.625Z,27.20
2018-08-16T08:40:22.492Z,27.40
2018-08-16T08:42:51.473Z,27.50
2018-08-16T08:45:20.408Z,27.70
2018-08-16T08:47:53.561Z,27.90
2018-08-16T08:50:22.513Z,28.00
2018-08-16T08:52:51.354Z,28.20
2018-08-16T08:55:31.606Z,28.40
2018-08-16T08:58:11.957Z,28.50
2018-08-16T09:00:40.918Z,28.70
2018-08-16T09:03:09.783Z,28.80
2018-08-16T09:05:38.783Z,29.00
2018-08-16T09:08:07.904Z,29.20
2018-08-16T09:10:49.323Z,29.40
2018-08-16T09:13:29.492Z,29.60
2018-08-16T09:15:59.528Z,29.80
2018-08-16T09:18:28.518Z,29.90
2018-08-16T09:20:58.799Z,30.20
2018-08-16T09:23:27.988Z,30.30
2018-08-16T09:25:56.904Z,30.50
2018-08-16T09:28:26.279Z,30.70
2018-08-16T09:31:06.436Z,30.90
2018-08-16T09:33:46.884Z,31.10
2018-08-16T09:36:15.893Z,31.20
2018-08-16T09:38:44.735Z,31.40
2018-08-16T09:41:13.628Z,31.60
2018-08-16T09:43:42.562Z,31.80
2018-08-16T09:47:21.652Z,32.00
2018-08-16T09:49:51.319Z,32.10
2018-08-16T09:52:21.032Z,32.30
2018-08-16T09:54:50.227Z,32.50
2018-08-16T09:57:19.172Z,32.60
2018-08-16T09:59:48.059Z,32.80
2018-08-16T10:02:17.595Z,32.90
2018-08-16T10:04:47.192Z,33.00
2018-08-16T10:07:16.283Z,33.10
2018-08-16T10:09:45.103Z,33.30
2018-08-16T10:12:14.129Z,33.30
2018-08-16T10:14:42.978Z,33.40
2018-08-16T10:17:11.800Z,33.50
2018-08-16T10:19:40.779Z,33.50
2018-08-16T10:22:09.676Z,33.60
2018-08-16T10:24:38.610Z,33.70
2018-08-16T10:27:07.592Z,33.80
2018-08-16T10:29:36.465Z,34.00
2018-08-16T10:32:05.721Z,34.10
2018-08-16T10:34:34.574Z,34.20
2018-08-16T10:37:04.614Z,34.30
2018-08-16T10:39:33.466Z,34.50
2018-08-16T10:42:02.464Z,34.60
2018-08-16T10:44:31.372Z,34.70
2018-08-16T10:47:00.201Z,34.80
2018-08-16T10:49:29.058Z,34.90
2018-08-16T10:51:57.956Z,35.00
2018-08-16T10:54:26.817Z,35.10
2018-08-16T10:56:55.708Z,35.10
2018-08-16T10:59:24.787Z,35.10
2018-08-16T11:01:53.637Z,35.10
2018-08-16T11:04:22.468Z,35.10
2018-08-16T11:06:51.315Z,35.10
2018-08-16T11:09:20.275Z,35.10
2018-08-16T11:11:50.293Z,35.10
2018-08-16T11:14:19.166Z,35.10
2018-08-16T11:16:47.991Z,35.10
2018-08-16T11:19:17.028Z,35.10
2018-08-16T11:21:46.939Z,35.10
2018-08-16T11:24:15.797Z,35.10
2018-08-16T11:26:45.039Z,35.10
2018-08-16T11:29:14.161Z,35.10
2018-08-16T11:31:43.060Z,35.10
2018-08-16T11:34:11.952Z,35.10
2018-08-16T11:36:40.857Z,35.10
2018-08-16T11:39:09.739Z,35.10
2018-08-16T11:41:38.569Z,35.10
2018-08-16T11:44:07.749Z,35.10
2018-08-16T11:46:37.251Z,35.10
2018-08-16T11:49:06.013Z,35.20
2018-08-16T11:51:34.857Z,35.10
2018-08-16T11:54:05.469Z,35.20
2018-08-16T11:56:34.316Z,35.20
2018-08-16T11:59:03.177Z,35.20
2018-08-16T12:01:32.091Z,35.20
2018-08-16T12:04:01.455Z,35.10
2018-08-16T12:06:30.285Z,35.10
2018-08-16T12:08:59.235Z,35.10
2018-08-16T12:11:28.156Z,35.10
2018-08-16T12:13:57.261Z,35.10
2018-08-16T12:16:26.134Z,35.10
2018-08-16T12:18:55.092Z,35.00
2018-08-16T12:21:23.955Z,35.00
2018-08-16T12:23:52.856Z,35.00
2018-08-16T12:26:21.680Z,35.00
2018-08-16T12:28:50.582Z,35.00
2018-08-16T12:31:19.418Z,34.90
2018-08-16T12:33:48.280Z,34.90
2018-08-16T12:36:17.197Z,34.90
2018-08-16T12:38:46.027Z,34.80
2018-08-16T12:41:14.969Z,34.80
2018-08-16T12:43:43.782Z,34.80
2018-08-16T12:46:12.763Z,34.80
2018-08-16T12:48:43.458Z,34.70
2018-08-16T12:51:12.373Z,34.70
2018-08-16T12:53:41.289Z,34.70
2018-08-16T12:56:10.120Z,34.70
2018-08-16T12:58:39.755Z,34.70
2018-08-16T13:01:08.693Z,34.70
2018-08-16T13:03:37.521Z,34.70
2018-08-16T13:06:06.392Z,34.60
2018-08-16T13:08:35.212Z,34.60
2018-08-16T13:11:04.547Z,34.60
2018-08-16T13:13:33.387Z,34.60
2018-08-16T13:16:02.240Z,34.50
2018-08-16T13:18:31.238Z,34.50
2018-08-16T13:21:00.116Z,34.50
2018-08-16T13:23:28.984Z,34.50
2018-08-16T13:25:57.875Z,34.50
2018-08-16T13:28:26.700Z,34.50
2018-08-16T13:30:55.578Z,34.60
2018-08-16T13:33:24.554Z,34.60
2018-08-16T13:35:53.377Z,34.60
2018-08-16T13:38:23.341Z,34.60
2018-08-16T13:40:52.172Z,34.70
2018-08-16T13:43:21.200Z,34.70
2018-08-16T13:45:50.069Z,34.70
2018-08-16T13:48:18.909Z,34.70
2018-08-16T13:50:49.509Z,34.70
2018-08-16T13:53:19.012Z,34.80
2018-08-16T13:55:47.906Z,34.80
2018-08-16T13:58:16.789Z,34.80
2018-08-16T14:00:45.629Z,34.80
2018-08-16T14:03:14.573Z,34.80
2018-08-16T14:05:43.446Z,34.80
2018-08-16T14:08:12.345Z,34.80
2018-08-16T14:10:41.238Z,34.80
2018-08-16T14:13:10.111Z,34.80
2018-08-16T14:15:38.975Z,34.80
2018-08-16T14:18:07.820Z,34.70
2018-08-16T14:20:36.644Z,34.70
2018-08-16T14:23:05.549Z,34.70
2018-08-16T14:25:34.420Z,34.70
2018-08-16T14:28:03.391Z,34.70
2018-08-16T14:30:32.222Z,34.80
2018-08-16T14:33:01.190Z,34.80
2018-08-16T14:35:30.055Z,34.80
2018-08-16T14:37:59.396Z,34.80
2018-08-16T14:40:28.609Z,34.90
2018-08-16T14:42:57.510Z,34.90
2018-08-16T14:45:26.387Z,34.90
2018-08-16T14:47:55.195Z,34.90
2018-08-16T14:50:24.036Z,34.90
2018-08-16T14:52:52.878Z,34.90
2018-08-16T14:55:21.707Z,34.80
2018-08-16T14:57:50.520Z,34.80
2018-08-16T15:00:19.375Z,34.80
2018-08-16T15:02:48.229Z,34.80
2018-08-16T15:05:17.089Z,34.70
2018-08-16T15:07:46.031Z,34.70
2018-08-16T15:10:14.886Z,34.60
2018-08-16T15:12:43.712Z,34.60
2018-08-16T15:15:13.232Z,34.50
2018-08-16T15:17:43.683Z,34.50
2018-08-16T15:20:13.144Z,34.40
2018-08-16T15:22:42.036Z,34.40
2018-08-16T15:25:11.091Z,34.30
2018-08-16T15:27:39.913Z,34.30
2018-08-16T15:30:09.453Z,34.30
2018-08-16T15:32:38.311Z,34.20
2018-08-16T15:35:09.043Z,34.10
2018-08-16T15:37:37.999Z,34.00
2018-08-16T15:40:06.813Z,33.90
2018-08-16T15:42:35.707Z,33.90
2018-08-16T15:45:05.007Z,33.80
2018-08-16T15:47:33.901Z,33.70
2018-08-16T15:50:03.034Z,33.60
2018-08-16T15:52:31.910Z,33.50
2018-08-16T15:55:00.787Z,33.50
2018-08-16T15:57:29.685Z,33.40
2018-08-16T15:59:59.297Z,33.30
2018-08-16T16:02:46.319Z,33.20
2018-08-16T16:05:23.027Z,33.10
2018-08-16T17:21:29.349Z,31.60
2018-08-16T17:23:58.333Z,31.10
2018-08-16T17:26:55.567Z,31.00
2018-08-16T17:42:36.403Z,31.00
2018-08-16T17:45:11.031Z,30.70
2018-08-16T17:48:21.479Z,30.50
2018-08-16T17:51:48.101Z,30.50
2018-08-16T17:54:55.241Z,30.40
2018-08-16T17:57:24.136Z,30.40
2018-08-16T17:59:53.074Z,30.40
2018-08-16T18:02:22.020Z,30.30
2018-08-16T18:04:51.250Z,30.20
2018-08-16T18:07:20.163Z,30.10
2018-08-16T18:09:49.001Z,30.10
2018-08-16T18:12:18.221Z,30.10
2018-08-16T18:14:47.087Z,30.00
2018-08-16T18:17:15.997Z,29.90
2018-08-16T18:19:44.862Z,29.80
2018-08-16T18:22:13.792Z,29.80
2018-08-16T18:24:42.711Z,29.70
2018-08-16T18:27:11.630Z,29.60
2018-08-16T18:29:40.607Z,29.60
2018-08-16T18:32:09.559Z,29.40
2018-08-16T18:34:38.428Z,29.30
2018-08-16T18:37:07.417Z,29.30
2018-08-16T18:39:36.312Z,29.20
2018-08-16T18:42:05.330Z,29.10
2018-08-16T18:44:34.192Z,29.00
2018-08-16T18:47:03.032Z,28.90
2018-08-16T18:49:31.895Z,28.80
2018-08-16T18:52:00.810Z,28.70
2018-08-16T18:54:29.680Z,28.60
2018-08-16T18:56:58.561Z,28.50
2018-08-16T18:59:27.462Z,28.40
2018-08-16T19:01:56.270Z,28.20
2018-08-16T19:04:25.304Z,28.10
2018-08-16T19:06:54.201Z,28.10
2018-08-16T19:09:23.113Z,27.90
2018-08-16T19:11:52.005Z,27.80
2018-08-16T19:14:21.747Z,27.80
2018-08-16T19:16:50.672Z,27.60
2018-08-16T19:19:19.561Z,27.50
2018-08-16T19:21:48.437Z,27.40
2018-08-16T19:24:17.401Z,27.30
2018-08-16T19:26:46.276Z,27.20
2018-08-16T19:29:15.148Z,27.10
2018-08-16T19:31:43.989Z,26.90
2018-08-16T19:34:12.919Z,26.80
2018-08-16T19:36:41.812Z,26.70
2018-08-16T19:39:12.306Z,26.60
2018-08-16T19:41:41.287Z,26.50
2018-08-16T19:44:10.177Z,26.40
2018-08-16T19:46:39.036Z,26.30
2018-08-16T19:49:07.920Z,26.20
2018-08-16T19:51:36.796Z,26.10
2018-08-16T19:54:05.663Z,26.00
2018-08-16T19:56:34.488Z,25.90
2018-08-16T19:59:03.380Z,25.80
2018-08-16T20:01:32.264Z,25.70
2018-08-16T20:04:02.277Z,25.60
2018-08-16T20:06:31.217Z,25.50
2018-08-16T20:09:00.189Z,25.40
2018-08-16T20:11:29.782Z,25.40
2018-08-16T20:13:58.739Z,25.30
2018-08-16T20:16:28.338Z,25.20
2018-08-16T20:18:57.230Z,25.10
2018-08-16T20:21:26.118Z,25.00
2018-08-16T20:23:55.021Z,24.90
2018-08-16T20:26:23.924Z,24.90
2018-08-16T20:28:52.781Z,24.80
2018-08-16T20:31:21.594Z,24.70
2018-08-16T20:33:50.517Z,24.70
2018-08-16T20:36:20.109Z,24.60
2018-08-16T20:38:48.972Z,24.50
2018-08-16T20:41:18.011Z,24.40
2018-08-16T20:43:46.893Z,24.40
2018-08-16T20:46:15.722Z,24.30
2018-08-16T20:48:44.625Z,24.20
2018-08-16T20:51:13.476Z,24.10
2018-08-16T20:53:42.299Z,24.10
2018-08-16T20:56:11.190Z,24.00
2018-08-16T20:58:40.015Z,24.00
2018-08-16T21:01:08.949Z,23.90
2018-08-16T21:03:37.688Z,23.80
2018-08-16T21:06:10.133Z,23.80
2018-08-16T21:08:39.031Z,23.70
2018-08-16T21:11:07.935Z,23.70
2018-08-16T21:13:36.906Z,23.60
2018-08-16T21:16:06.200Z,23.50
2018-08-16T21:18:35.267Z,23.50
2018-08-16T21:21:05.435Z,23.40
2018-08-16T21:23:34.262Z,23.40
2018-08-16T21:26:03.353Z,23.30
2018-08-16T21:28:32.285Z,23.20
2018-08-16T21:31:01.155Z,23.20
2018-08-16T21:33:30.149Z,23.10
2018-08-16T21:35:59.096Z,23.10
2018-08-16T21:38:29.283Z,23.00
2018-08-16T21:40:59.768Z,23.00
2018-08-16T21:43:28.638Z,22.90
2018-08-16T21:45:57.551Z,22.90
2018-08-16T21:48:26.412Z,22.90
